createdAt,value
2023-05-24T00:00:00.203Z,87.7
2023-05-24T00:05:00.348Z,87.8
2023-05-24T00:10:00.215Z,88.4
2023-05-24T00:15:00.198Z,88.4
2023-05-24T00:20:00.220Z,89.9
2023-05-24T00:25:00.175Z,90
2023-05-24T00:30:00.184Z,90.2
2023-05-24T00:35:00.195Z,90.5
2023-05-24T00:40:00.230Z,90.4
2023-05-24T00:45:00.190Z,90
2023-05-24T00:50:00.199Z,89.7
2023-05-24T00:55:00.178Z,89.2
2023-05-24T01:00:00.215Z,89
2023-05-24T01:05:00.203Z,88.7
2023-05-24T01:10:00.205Z,88.5
2023-05-24T01:15:00.171Z,88.5
2023-05-24T01:20:00.283Z,88.4
2023-05-24T01:25:00.252Z,88.7
2023-05-24T01:30:00.243Z,88.2
2023-05-24T01:35:00.194Z,89.2
2023-05-24T01:40:00.242Z,88.4
2023-05-24T01:45:00.188Z,89.2
2023-05-24T01:50:00.150Z,89
2023-05-24T01:55:00.245Z,88.9
2023-05-24T02:00:00.228Z,88.5
2023-05-24T02:05:00.175Z,88.6
2023-05-24T02:10:00.160Z,88.6
2023-05-24T02:15:00.187Z,88.1
2023-05-24T02:20:00.278Z,87.4
2023-05-24T02:25:00.177Z,87.7
2023-05-24T02:30:00.212Z,87.6
2023-05-24T02:35:00.160Z,87.4
2023-05-24T02:40:00.159Z,87.3
2023-05-24T02:45:00.243Z,87.2
2023-05-24T02:50:00.210Z,86.9
2023-05-24T02:55:00.187Z,86.5
2023-05-24T03:00:00.190Z,86.4
2023-05-24T03:05:00.199Z,86.2
2023-05-24T03:10:00.187Z,86.3
2023-05-24T03:15:00.206Z,86
2023-05-24T03:20:00.244Z,86
2023-05-24T03:25:00.190Z,85.9
2023-05-24T03:30:00.214Z,85.9
2023-05-24T03:35:00.174Z,85.5
2023-05-24T03:40:00.196Z,86
2023-05-24T03:45:00.649Z,86.8
2023-05-24T03:50:00.165Z,87.5
2023-05-24T03:55:00.172Z,88.1
2023-05-24T04:00:00.215Z,87.6
2023-05-24T04:05:00.206Z,88.1
2023-05-24T04:10:00.177Z,87.3
2023-05-24T04:15:00.147Z,86.6
2023-05-24T04:20:00.197Z,86.4
2023-05-24T04:25:00.391Z,86.2
2023-05-24T04:30:00.159Z,85.8
2023-05-24T04:35:00.153Z,85.7
2023-05-24T04:40:00.216Z,85.9
2023-05-24T04:45:00.207Z,86.2
2023-05-24T04:50:00.209Z,86
2023-05-24T04:55:00.177Z,86.8
2023-05-24T05:00:00.214Z,87
2023-05-24T05:05:00.188Z,86.9
2023-05-24T05:10:00.208Z,86.7
2023-05-24T05:15:00.195Z,86.7
2023-05-24T05:20:00.226Z,86.2
2023-05-24T05:25:00.218Z,85.8
2023-05-24T05:30:00.221Z,85.4
2023-05-24T05:35:00.171Z,85.2
2023-05-24T05:40:00.275Z,85.4
2023-05-24T05:45:00.220Z,84.7
2023-05-24T05:50:00.224Z,83.3
2023-05-24T05:55:00.163Z,83
2023-05-24T06:00:00.215Z,82.6
2023-05-24T06:05:00.357Z,82
2023-05-24T06:10:00.232Z,81.2
2023-05-24T06:15:00.187Z,80.5
2023-05-24T06:20:00.267Z,80.3
2023-05-24T06:25:00.200Z,79.6
2023-05-24T06:30:00.277Z,79.7
2023-05-24T06:35:00.173Z,78.4
2023-05-24T06:40:00.205Z,76.7
2023-05-24T06:45:00.177Z,77.5
2023-05-24T06:50:00.174Z,76.3
2023-05-24T06:55:00.174Z,74
2023-05-24T07:00:00.164Z,71.7
2023-05-24T07:05:00.326Z,71.4
2023-05-24T07:10:00.217Z,71.4
2023-05-24T07:15:00.168Z,68.1
2023-05-24T07:20:00.257Z,68.1
2023-05-24T07:25:00.199Z,68.2
2023-05-24T07:30:00.246Z,65.9
2023-05-24T07:35:00.203Z,56.5
2023-05-24T07:40:00.176Z,52.5
2023-05-24T07:45:00.184Z,50.3
2023-05-24T07:50:00.174Z,49.2
2023-05-24T07:55:00.161Z,48.3
2023-05-24T08:00:00.290Z,50.2
2023-05-24T08:05:00.190Z,53.3
2023-05-24T08:10:00.189Z,57.5
2023-05-24T08:15:00.198Z,58
2023-05-24T08:20:00.314Z,59.8
2023-05-24T08:25:00.208Z,50.5
2023-05-24T08:30:00.229Z,48
2023-05-24T08:35:11.009Z,45.5
2023-05-24T08:40:00.171Z,44
2023-05-24T08:45:00.160Z,44.7
2023-05-24T08:50:00.174Z,46
2023-05-24T08:55:00.175Z,47.8
2023-05-24T09:00:00.171Z,46.4
2023-05-24T09:05:00.325Z,41.2
2023-05-24T09:10:00.191Z,39.2
2023-05-24T09:15:00.151Z,39.3
2023-05-24T09:20:00.293Z,40.6
2023-05-24T09:25:00.215Z,39.2
2023-05-24T09:30:00.223Z,39.2
2023-05-24T09:35:00.202Z,38.7
2023-05-24T09:40:00.317Z,36.5
2023-05-24T09:45:00.170Z,36.2
2023-05-24T09:50:00.230Z,36
2023-05-24T09:55:00.219Z,35.6
2023-05-24T10:00:00.229Z,37.1
2023-05-24T10:05:00.275Z,38.5
2023-05-24T10:10:00.234Z,40.1
2023-05-24T10:15:00.198Z,39.6
2023-05-24T10:20:00.335Z,37.8
2023-05-24T10:25:00.212Z,36.7
2023-05-24T10:30:00.245Z,36.7
2023-05-24T10:35:00.156Z,37.8
2023-05-24T10:40:00.200Z,39.2
2023-05-24T10:45:00.211Z,40.2
2023-05-24T10:50:00.268Z,39.8
2023-05-24T10:55:03.693Z,39.3
2023-05-24T11:00:00.263Z,38.4
2023-05-24T11:05:00.308Z,39.1
2023-05-24T11:10:00.202Z,39.8
2023-05-24T11:15:00.141Z,39.6
2023-05-24T11:20:00.211Z,40.6
2023-05-24T11:25:00.278Z,40.9
2023-05-24T11:30:00.176Z,41.4
2023-05-24T11:35:00.199Z,41.3
2023-05-24T11:40:00.161Z,40.3
2023-05-24T11:45:00.197Z,39.5
2023-05-24T11:50:00.187Z,37.7
2023-05-24T11:55:00.175Z,37
2023-05-24T12:00:00.255Z,36.4
2023-05-24T12:05:00.403Z,37.3
2023-05-24T12:10:00.222Z,36.8
2023-05-24T12:15:00.184Z,36.6
2023-05-24T12:20:00.483Z,34
2023-05-24T12:25:00.183Z,36.2
2023-05-24T12:30:00.236Z,36.2
2023-05-24T12:35:00.222Z,36.1
2023-05-24T12:40:00.228Z,35.9
2023-05-24T12:45:00.161Z,35.8
2023-05-24T12:50:00.277Z,35.2
2023-05-24T12:55:00.149Z,35.4
2023-05-24T13:00:00.278Z,36.2
2023-05-24T13:05:00.216Z,37.3
2023-05-24T13:10:00.209Z,38.2
2023-05-24T13:15:00.153Z,38.4
2023-05-24T13:20:00.198Z,39.2
2023-05-24T13:25:00.193Z,38.9
2023-05-24T13:30:01.419Z,39.2
2023-05-24T13:35:00.208Z,39.1
2023-05-24T13:40:00.279Z,39
2023-05-24T13:45:00.304Z,38.6
2023-05-24T13:50:00.177Z,38.2
2023-05-24T13:55:00.172Z,37.6
2023-05-24T14:00:00.259Z,38.2
2023-05-24T14:05:13.843Z,38.8
2023-05-24T14:10:00.210Z,38.6
2023-05-24T14:15:00.493Z,39.2
2023-05-24T14:20:00.229Z,39.5
2023-05-24T14:25:00.164Z,39.5
2023-05-24T14:30:00.284Z,40
2023-05-24T14:35:00.167Z,39.8
2023-05-24T14:40:00.341Z,39.8
2023-05-24T14:45:00.225Z,39.7
2023-05-24T14:50:00.251Z,39.3
2023-05-24T14:55:00.159Z,37.4
2023-05-24T15:00:00.216Z,34.6
2023-05-24T15:05:00.282Z,35.7
2023-05-24T15:10:00.214Z,36.7
2023-05-24T15:15:00.188Z,37.4
2023-05-24T15:20:00.225Z,36.8
2023-05-24T15:25:00.254Z,35.2
2023-05-24T15:30:00.255Z,35.2
2023-05-24T15:35:00.336Z,35.4
2023-05-24T15:40:00.187Z,35.8
2023-05-24T15:45:00.224Z,36.4
2023-05-24T15:50:00.151Z,37.5
2023-05-24T15:55:00.229Z,38.7
2023-05-24T16:00:00.228Z,40.2
2023-05-24T16:05:00.211Z,41.5
2023-05-24T16:10:00.222Z,42
2023-05-24T16:15:00.149Z,42.5
2023-05-24T16:20:00.240Z,42.7
2023-05-24T16:25:00.222Z,42.6
2023-05-24T16:30:00.166Z,42.5
2023-05-24T16:35:00.153Z,42.1
2023-05-24T16:40:00.169Z,41.7
2023-05-24T16:45:00.147Z,42
2023-05-24T16:50:00.222Z,40.4
2023-05-24T16:55:00.193Z,42.2
2023-05-24T17:00:00.271Z,42.6
2023-05-24T17:05:00.229Z,43
2023-05-24T17:10:00.225Z,43
2023-05-24T17:15:00.190Z,43.3
2023-05-24T17:20:00.307Z,43.6
2023-05-24T17:25:00.182Z,43.9
2023-05-24T17:30:00.331Z,44.3
2023-05-24T17:35:00.243Z,45.1
2023-05-24T17:40:00.156Z,45.6
2023-05-24T17:45:00.260Z,46.8
2023-05-24T17:50:00.241Z,49.6
2023-05-24T17:55:00.169Z,51.2
2023-05-24T18:00:00.193Z,52.3
2023-05-24T18:05:00.247Z,53.7
2023-05-24T18:10:00.630Z,56.4
2023-05-24T18:15:00.182Z,57.8
2023-05-24T18:20:00.278Z,59.6
2023-05-24T18:25:00.191Z,60.4
2023-05-24T18:30:00.219Z,60.9
2023-05-24T18:35:00.150Z,61.3
2023-05-24T18:40:00.171Z,62.3
2023-05-24T18:45:00.223Z,63
2023-05-24T18:50:00.210Z,63.5
2023-05-24T18:55:00.160Z,64.3
2023-05-24T19:00:00.203Z,64.8
2023-05-24T19:05:00.202Z,65.5
2023-05-24T19:10:00.155Z,66
2023-05-24T19:15:00.204Z,67.5
2023-05-24T19:20:00.241Z,68
2023-05-24T19:25:00.163Z,68.6
2023-05-24T19:30:00.294Z,69
2023-05-24T19:35:00.149Z,69.3
2023-05-24T19:40:00.158Z,69.6
2023-05-24T19:45:00.229Z,70.2
2023-05-24T19:50:00.226Z,70.7
2023-05-24T19:55:00.125Z,71
2023-05-24T20:00:00.223Z,71.3
2023-05-24T20:05:00.217Z,72
2023-05-24T20:10:00.192Z,72.8
2023-05-24T20:15:00.171Z,73.5
2023-05-24T20:20:00.221Z,74.7
2023-05-24T20:25:00.200Z,75.2
2023-05-24T20:30:00.150Z,75.8
2023-05-24T20:35:00.179Z,76.3
2023-05-24T20:40:00.167Z,76.8
2023-05-24T20:45:00.186Z,76.9
2023-05-24T20:50:00.195Z,77.7
2023-05-24T20:55:00.131Z,77.7
2023-05-24T21:00:00.170Z,79.1
2023-05-24T21:05:00.177Z,79.2
2023-05-24T21:10:00.172Z,79.5
2023-05-24T21:15:00.222Z,79.9
2023-05-24T21:20:00.216Z,80.2
2023-05-24T21:25:00.187Z,80.5
2023-05-24T21:30:00.253Z,81.1
2023-05-24T21:35:00.192Z,81.8
2023-05-24T21:40:00.156Z,82.1
2023-05-24T21:45:00.276Z,82.6
2023-05-24T21:50:00.171Z,83.3
2023-05-24T21:55:00.142Z,82.7
2023-05-24T22:00:00.179Z,84
2023-05-24T22:05:00.212Z,84.4
2023-05-24T22:10:00.205Z,84.5
2023-05-24T22:15:00.151Z,84.2
2023-05-24T22:20:00.200Z,84.2
2023-05-24T22:25:00.265Z,84.2
2023-05-24T22:30:00.234Z,84.5
2023-05-24T22:35:00.137Z,85.3
2023-05-24T22:40:00.205Z,85.4
2023-05-24T22:45:00.196Z,85.7
2023-05-24T22:50:00.171Z,85.8
2023-05-24T22:55:00.165Z,86.2
2023-05-24T23:00:00.176Z,86.7
2023-05-24T23:05:00.480Z,87.3
2023-05-24T23:10:00.206Z,88
2023-05-24T23:15:00.150Z,88.5
2023-05-24T23:20:00.263Z,89
2023-05-24T23:25:00.158Z,89.5
2023-05-24T23:30:00.182Z,89.9
2023-05-24T23:35:00.263Z,90
2023-05-24T23:40:00.160Z,90
2023-05-24T23:45:00.158Z,90.1
2023-05-24T23:50:00.214Z,90.2
2023-05-24T23:55:00.168Z,90.2
